sensor_id;sensor_type;location;lat;lon;timestamp;P1;durP1;ratioP1;P2;durP2;ratioP2
18125;SDS011;53956;52.442;13.284;2023-07-24T00:00:21;6.57;;;3.50;;
18125;SDS011;53956;52.442;13.284;2023-07-24T00:02:49;6.43;;;3.65;;
18125;SDS011;53956;52.442;13.284;2023-07-24T00:05:16;5.03;;;3.47;;
18125;SDS011;53956;52.442;13.284;2023-07-24T00:07:43;6.32;;;3.83;;
18125;SDS011;53956;52.442;13.284;2023-07-24T00:10:09;7.32;;;3.42;;
18125;SDS011;53956;52.442;13.284;2023-07-24T00:12:36;6.88;;;3.60;;
18125;SDS011;53956;52.442;13.284;2023-07-24T00:15:03;5.15;;;3.60;;
18125;SDS011;53956;52.442;13.284;2023-07-24T00:17:30;5.78;;;3.20;;
18125;SDS011;53956;52.442;13.284;2023-07-24T00:19:58;4.97;;;3.60;;
18125;SDS011;53956;52.442;13.284;2023-07-24T00:22:25;6.18;;;3.60;;
18125;SDS011;53956;52.442;13.284;2023-07-24T00:24:52;8.27;;;3.75;;
18125;SDS011;53956;52.442;13.284;2023-07-24T00:27:18;5.57;;;3.40;;
18125;SDS011;53956;52.442;13.284;2023-07-24T00:29:45;7.18;;;3.30;;
18125;SDS011;53956;52.442;13.284;2023-07-24T00:32:11;6.25;;;3.65;;
18125;SDS011;53956;52.442;13.284;2023-07-24T00:34:38;7.35;;;3.55;;
18125;SDS011;53956;52.442;13.284;2023-07-24T00:37:06;5.68;;;3.38;;
18125;SDS011;53956;52.442;13.284;2023-07-24T00:39:33;5.55;;;3.15;;
18125;SDS011;53956;52.442;13.284;2023-07-24T00:41:59;4.57;;;3.45;;
18125;SDS011;53956;52.442;13.284;2023-07-24T00:44:27;5.05;;;3.20;;
18125;SDS011;53956;52.442;13.284;2023-07-24T00:46:53;5.95;;;3.58;;
18125;SDS011;53956;52.442;13.284;2023-07-24T00:49:20;5.50;;;3.65;;
18125;SDS011;53956;52.442;13.284;2023-07-24T00:51:47;4.65;;;3.10;;
18125;SDS011;53956;52.442;13.284;2023-07-24T00:54:16;8.40;;;3.28;;
18125;SDS011;53956;52.442;13.284;2023-07-24T00:56:44;7.40;;;3.40;;
18125;SDS011;53956;52.442;13.284;2023-07-24T00:59:14;4.97;;;3.47;;
18125;SDS011;53956;52.442;13.284;2023-07-24T01:01:41;6.15;;;3.22;;
18125;SDS011;53956;52.442;13.284;2023-07-24T01:04:08;6.07;;;3.70;;
18125;SDS011;53956;52.442;13.284;2023-07-24T01:06:35;5.38;;;3.35;;
18125;SDS011;53956;52.442;13.284;2023-07-24T01:09:02;4.85;;;3.38;;
18125;SDS011;53956;52.442;13.284;2023-07-24T01:11:33;4.72;;;3.10;;
18125;SDS011;53956;52.442;13.284;2023-07-24T01:14:04;3.63;;;2.90;;
18125;SDS011;53956;52.442;13.284;2023-07-24T01:16:37;3.92;;;3.33;;
18125;SDS011;53956;52.442;13.284;2023-07-24T01:19:08;5.75;;;3.58;;
18125;SDS011;53956;52.442;13.284;2023-07-24T01:21:38;4.85;;;3.50;;
18125;SDS011;53956;52.442;13.284;2023-07-24T01:24:19;4.55;;;3.15;;
18125;SDS011;53956;52.442;13.284;2023-07-24T01:26:56;5.15;;;3.22;;
18125;SDS011;53956;52.442;13.284;2023-07-24T01:29:23;6.18;;;3.30;;
18125;SDS011;53956;52.442;13.284;2023-07-24T01:31:50;5.45;;;3.20;;
18125;SDS011;53956;52.442;13.284;2023-07-24T01:34:17;5.07;;;3.28;;
18125;SDS011;53956;52.442;13.284;2023-07-24T01:36:45;5.07;;;3.13;;
18125;SDS011;53956;52.442;13.284;2023-07-24T01:39:12;3.97;;;3.03;;
18125;SDS011;53956;52.442;13.284;2023-07-24T01:41:40;5.20;;;3.20;;
18125;SDS011;53956;52.442;13.284;2023-07-24T01:44:09;4.03;;;3.28;;
18125;SDS011;53956;52.442;13.284;2023-07-24T01:46:35;5.22;;;3.10;;
18125;SDS011;53956;52.442;13.284;2023-07-24T01:49:02;5.45;;;3.08;;
18125;SDS011;53956;52.442;13.284;2023-07-24T01:51:28;9.23;;;3.22;;
18125;SDS011;53956;52.442;13.284;2023-07-24T01:53:55;4.47;;;3.03;;
18125;SDS011;53956;52.442;13.284;2023-07-24T01:56:22;7.60;;;3.20;;
18125;SDS011;53956;52.442;13.284;2023-07-24T01:58:48;7.35;;;3.08;;
18125;SDS011;53956;52.442;13.284;2023-07-24T02:01:16;7.47;;;3.67;;
18125;SDS011;53956;52.442;13.284;2023-07-24T02:03:43;7.38;;;3.22;;
18125;SDS011;53956;52.442;13.284;2023-07-24T02:06:10;4.75;;;3.17;;
18125;SDS011;53956;52.442;13.284;2023-07-24T02:08:37;4.20;;;3.30;;
18125;SDS011;53956;52.442;13.284;2023-07-24T02:11:04;4.53;;;3.25;;
18125;SDS011;53956;52.442;13.284;2023-07-24T02:13:31;4.90;;;3.10;;
18125;SDS011;53956;52.442;13.284;2023-07-24T02:15:58;6.18;;;3.10;;
18125;SDS011;53956;52.442;13.284;2023-07-24T02:18:25;4.65;;;3.17;;
18125;SDS011;53956;52.442;13.284;2023-07-24T02:20:52;4.28;;;3.30;;
18125;SDS011;53956;52.442;13.284;2023-07-24T02:23:19;4.15;;;3.08;;
18125;SDS011;53956;52.442;13.284;2023-07-24T02:25:45;4.35;;;3.13;;
18125;SDS011;53956;52.442;13.284;2023-07-24T02:28:16;4.13;;;2.83;;
18125;SDS011;53956;52.442;13.284;2023-07-24T02:30:43;5.10;;;2.90;;
18125;SDS011;53956;52.442;13.284;2023-07-24T02:33:12;5.13;;;2.97;;
18125;SDS011;53956;52.442;13.284;2023-07-24T02:35:41;4.78;;;2.90;;
18125;SDS011;53956;52.442;13.284;2023-07-24T02:38:08;5.45;;;2.88;;
18125;SDS011;53956;52.442;13.284;2023-07-24T02:40:37;5.05;;;2.90;;
18125;SDS011;53956;52.442;13.284;2023-07-24T02:43:07;5.68;;;2.60;;
18125;SDS011;53956;52.442;13.284;2023-07-24T02:45:34;6.05;;;3.38;;
18125;SDS011;53956;52.442;13.284;2023-07-24T02:48:00;4.63;;;3.10;;
18125;SDS011;53956;52.442;13.284;2023-07-24T02:50:28;5.78;;;2.90;;
18125;SDS011;53956;52.442;13.284;2023-07-24T02:52:56;4.07;;;2.80;;
18125;SDS011;53956;52.442;13.284;2023-07-24T02:55:23;5.50;;;3.20;;
18125;SDS011;53956;52.442;13.284;2023-07-24T02:57:49;4.03;;;2.60;;
18125;SDS011;53956;52.442;13.284;2023-07-24T03:00:16;6.07;;;3.15;;
18125;SDS011;53956;52.442;13.284;2023-07-24T03:02:43;6.07;;;3.22;;
18125;SDS011;53956;52.442;13.284;2023-07-24T03:05:10;5.55;;;2.72;;
18125;SDS011;53956;52.442;13.284;2023-07-24T03:07:36;3.70;;;2.65;;
18125;SDS011;53956;52.442;13.284;2023-07-24T03:10:05;3.15;;;2.60;;
18125;SDS011;53956;52.442;13.284;2023-07-24T03:12:32;5.25;;;2.63;;
18125;SDS011;53956;52.442;13.284;2023-07-24T03:14:59;2.90;;;2.53;;
18125;SDS011;53956;52.442;13.284;2023-07-24T03:17:26;6.20;;;2.88;;
18125;SDS011;53956;52.442;13.284;2023-07-24T03:19:53;4.70;;;2.63;;
18125;SDS011;53956;52.442;13.284;2023-07-24T03:22:20;3.58;;;2.60;;
18125;SDS011;53956;52.442;13.284;2023-07-24T03:24:47;6.63;;;2.90;;
18125;SDS011;53956;52.442;13.284;2023-07-24T03:27:15;5.88;;;2.78;;
18125;SDS011;53956;52.442;13.284;2023-07-24T03:29:41;3.70;;;2.30;;
18125;SDS011;53956;52.442;13.284;2023-07-24T03:32:08;3.10;;;2.40;;
18125;SDS011;53956;52.442;13.284;2023-07-24T03:34:35;3.50;;;2.35;;
18125;SDS011;53956;52.442;13.284;2023-07-24T03:37:02;2.92;;;2.63;;
18125;SDS011;53956;52.442;13.284;2023-07-24T03:39:29;4.68;;;2.58;;
18125;SDS011;53956;52.442;13.284;2023-07-24T03:41:56;3.97;;;2.30;;
18125;SDS011;53956;52.442;13.284;2023-07-24T03:44:27;4.13;;;2.35;;
18125;SDS011;53956;52.442;13.284;2023-07-24T03:46:54;3.03;;;2.33;;
18125;SDS011;53956;52.442;13.284;2023-07-24T03:49:20;2.80;;;2.13;;
18125;SDS011;53956;52.442;13.284;2023-07-24T03:51:47;6.15;;;2.45;;
18125;SDS011;53956;52.442;13.284;2023-07-24T03:54:14;3.35;;;2.38;;
18125;SDS011;53956;52.442;13.284;2023-07-24T03:56:40;3.03;;;2.30;;
18125;SDS011;53956;52.442;13.284;2023-07-24T03:59:07;3.92;;;2.33;;
18125;SDS011;53956;52.442;13.284;2023-07-24T04:01:35;3.17;;;2.30;;
18125;SDS011;53956;52.442;13.284;2023-07-24T04:04:02;2.78;;;2.05;;
18125;SDS011;53956;52.442;13.284;2023-07-24T04:06:29;3.85;;;2.20;;
18125;SDS011;53956;52.442;13.284;2023-07-24T04:08:55;2.28;;;2.00;;
18125;SDS011;53956;52.442;13.284;2023-07-24T04:11:22;4.38;;;2.30;;
18125;SDS011;53956;52.442;13.284;2023-07-24T04:13:49;4.95;;;2.30;;
18125;SDS011;53956;52.442;13.284;2023-07-24T04:16:15;3.50;;;2.22;;
18125;SDS011;53956;52.442;13.284;2023-07-24T04:18:43;5.88;;;2.30;;
18125;SDS011;53956;52.442;13.284;2023-07-24T04:21:10;2.53;;;2.10;;
18125;SDS011;53956;52.442;13.284;2023-07-24T04:23:36;3.75;;;2.00;;
18125;SDS011;53956;52.442;13.284;2023-07-24T04:26:03;3.25;;;1.92;;
18125;SDS011;53956;52.442;13.284;2023-07-24T04:28:29;2.15;;;1.90;;
18125;SDS011;53956;52.442;13.284;2023-07-24T04:30:59;2.10;;;1.85;;
18125;SDS011;53956;52.442;13.284;2023-07-24T04:33:25;2.63;;;1.90;;
18125;SDS011;53956;52.442;13.284;2023-07-24T04:35:54;3.63;;;1.90;;
18125;SDS011;53956;52.442;13.284;2023-07-24T04:38:20;3.25;;;2.00;;
18125;SDS011;53956;52.442;13.284;2023-07-24T04:40:47;2.30;;;1.83;;
18125;SDS011;53956;52.442;13.284;2023-07-24T04:43:14;3.28;;;2.10;;
18125;SDS011;53956;52.442;13.284;2023-07-24T04:45:40;2.83;;;1.90;;
18125;SDS011;53956;52.442;13.284;2023-07-24T04:48:07;3.80;;;1.65;;
18125;SDS011;53956;52.442;13.284;2023-07-24T04:50:33;2.75;;;1.90;;
18125;SDS011;53956;52.442;13.284;2023-07-24T04:53:01;2.00;;;1.45;;
18125;SDS011;53956;52.442;13.284;2023-07-24T04:55:28;2.00;;;1.50;;
18125;SDS011;53956;52.442;13.284;2023-07-24T04:57:55;3.45;;;1.70;;
18125;SDS011;53956;52.442;13.284;2023-07-24T05:00:21;4.50;;;1.67;;
18125;SDS011;53956;52.442;13.284;2023-07-24T05:02:48;1.85;;;1.40;;
18125;SDS011;53956;52.442;13.284;2023-07-24T05:05:15;1.92;;;1.60;;
18125;SDS011;53956;52.442;13.284;2023-07-24T05:07:41;2.25;;;1.63;;
18125;SDS011;53956;52.442;13.284;2023-07-24T05:10:09;2.40;;;1.70;;
18125;SDS011;53956;52.442;13.284;2023-07-24T05:12:36;3.13;;;1.52;;
18125;SDS011;53956;52.442;13.284;2023-07-24T05:15:03;2.92;;;1.50;;
18125;SDS011;53956;52.442;13.284;2023-07-24T05:17:30;3.33;;;1.70;;
18125;SDS011;53956;52.442;13.284;2023-07-24T05:19:57;2.53;;;1.33;;
18125;SDS011;53956;52.442;13.284;2023-07-24T05:22:23;2.45;;;1.50;;
18125;SDS011;53956;52.442;13.284;2023-07-24T05:24:50;2.88;;;1.50;;
18125;SDS011;53956;52.442;13.284;2023-07-24T05:27:18;1.42;;;1.33;;
18125;SDS011;53956;52.442;13.284;2023-07-24T05:29:44;3.38;;;1.50;;
18125;SDS011;53956;52.442;13.284;2023-07-24T05:32:11;1.55;;;1.40;;
18125;SDS011;53956;52.442;13.284;2023-07-24T05:34:38;1.48;;;1.38;;
18125;SDS011;53956;52.442;13.284;2023-07-24T05:37:04;2.03;;;1.50;;
18125;SDS011;53956;52.442;13.284;2023-07-24T05:39:31;2.72;;;1.50;;
18125;SDS011;53956;52.442;13.284;2023-07-24T05:41:58;2.00;;;1.30;;
18125;SDS011;53956;52.442;13.284;2023-07-24T05:44:26;2.22;;;1.15;;
18125;SDS011;53956;52.442;13.284;2023-07-24T05:46:53;2.47;;;1.30;;
18125;SDS011;53956;52.442;13.284;2023-07-24T05:49:19;3.00;;;1.20;;
18125;SDS011;53956;52.442;13.284;2023-07-24T05:51:46;3.92;;;1.15;;
18125;SDS011;53956;52.442;13.284;2023-07-24T05:54:13;1.55;;;1.30;;
18125;SDS011;53956;52.442;13.284;2023-07-24T05:56:39;2.20;;;1.30;;
18125;SDS011;53956;52.442;13.284;2023-07-24T05:59:06;2.53;;;1.40;;
18125;SDS011;53956;52.442;13.284;2023-07-24T06:01:34;1.65;;;1.20;;
18125;SDS011;53956;52.442;13.284;2023-07-24T06:04:00;2.47;;;1.30;;
18125;SDS011;53956;52.442;13.284;2023-07-24T06:06:27;4.35;;;1.55;;
18125;SDS011;53956;52.442;13.284;2023-07-24T06:08:54;1.60;;;1.38;;
18125;SDS011;53956;52.442;13.284;2023-07-24T06:11:20;1.60;;;1.50;;
18125;SDS011;53956;52.442;13.284;2023-07-24T06:13:48;3.95;;;1.40;;
18125;SDS011;53956;52.442;13.284;2023-07-24T06:16:14;1.95;;;1.52;;
18125;SDS011;53956;52.442;13.284;2023-07-24T06:18:42;2.22;;;1.90;;
18125;SDS011;53956;52.442;13.284;2023-07-24T06:21:09;2.20;;;1.50;;
18125;SDS011;53956;52.442;13.284;2023-07-24T06:23:36;2.58;;;1.60;;
18125;SDS011;53956;52.442;13.284;2023-07-24T06:26:02;3.35;;;1.70;;
18125;SDS011;53956;52.442;13.284;2023-07-24T06:28:29;2.13;;;1.65;;
18125;SDS011;53956;52.442;13.284;2023-07-24T06:30:57;1.52;;;1.42;;
18125;SDS011;53956;52.442;13.284;2023-07-24T06:33:23;3.15;;;1.80;;
18125;SDS011;53956;52.442;13.284;2023-07-24T06:35:51;3.15;;;1.70;;
18125;SDS011;53956;52.442;13.284;2023-07-24T06:38:18;3.85;;;1.70;;
18125;SDS011;53956;52.442;13.284;2023-07-24T06:40:46;2.47;;;1.90;;
18125;SDS011;53956;52.442;13.284;2023-07-24T06:43:13;2.53;;;1.60;;
18125;SDS011;53956;52.442;13.284;2023-07-24T06:45:39;2.75;;;1.70;;
18125;SDS011;53956;52.442;13.284;2023-07-24T06:48:06;2.00;;;1.70;;
18125;SDS011;53956;52.442;13.284;2023-07-24T06:50:32;2.15;;;1.80;;
18125;SDS011;53956;52.442;13.284;2023-07-24T06:53:00;3.90;;;2.00;;
18125;SDS011;53956;52.442;13.284;2023-07-24T06:55:27;2.70;;;1.60;;
18125;SDS011;53956;52.442;13.284;2023-07-24T06:57:54;2.58;;;1.98;;
18125;SDS011;53956;52.442;13.284;2023-07-24T07:00:20;2.53;;;2.08;;
18125;SDS011;53956;52.442;13.284;2023-07-24T07:02:47;3.28;;;1.98;;
18125;SDS011;53956;52.442;13.284;2023-07-24T07:05:13;2.20;;;2.00;;
18125;SDS011;53956;52.442;13.284;2023-07-24T07:07:40;2.72;;;2.30;;
18125;SDS011;53956;52.442;13.284;2023-07-24T07:10:08;2.53;;;2.22;;
18125;SDS011;53956;52.442;13.284;2023-07-24T07:12:35;2.90;;;1.88;;
18125;SDS011;53956;52.442;13.284;2023-07-24T07:15:02;2.45;;;1.95;;
18125;SDS011;53956;52.442;13.284;2023-07-24T07:17:28;3.00;;;2.20;;
18125;SDS011;53956;52.442;13.284;2023-07-24T07:19:55;3.92;;;2.30;;
18125;SDS011;53956;52.442;13.284;2023-07-24T07:22:22;4.18;;;2.35;;
18125;SDS011;53956;52.442;13.284;2023-07-24T07:24:49;3.08;;;2.10;;
18125;SDS011;53956;52.442;13.284;2023-07-24T07:27:17;2.35;;;2.03;;
18125;SDS011;53956;52.442;13.284;2023-07-24T07:29:43;2.53;;;1.90;;
18125;SDS011;53956;52.442;13.284;2023-07-24T07:32:10;3.05;;;1.90;;
18125;SDS011;53956;52.442;13.284;2023-07-24T07:34:36;2.70;;;1.88;;
18125;SDS011;53956;52.442;13.284;2023-07-24T07:37:04;2.42;;;2.00;;
18125;SDS011;53956;52.442;13.284;2023-07-24T07:39:31;2.45;;;1.80;;
18125;SDS011;53956;52.442;13.284;2023-07-24T07:41:57;5.30;;;2.10;;
18125;SDS011;53956;52.442;13.284;2023-07-24T07:44:25;2.10;;;1.90;;
18125;SDS011;53956;52.442;13.284;2023-07-24T07:46:52;3.35;;;2.10;;
18125;SDS011;53956;52.442;13.284;2023-07-24T07:49:18;2.53;;;2.00;;
18125;SDS011;53956;52.442;13.284;2023-07-24T07:51:45;2.00;;;1.83;;
18125;SDS011;53956;52.442;13.284;2023-07-24T07:54:11;2.00;;;1.80;;
18125;SDS011;53956;52.442;13.284;2023-07-24T07:56:38;2.28;;;1.95;;
18125;SDS011;53956;52.442;13.284;2023-07-24T07:59:05;5.57;;;1.90;;
18125;SDS011;53956;52.442;13.284;2023-07-24T08:01:33;2.17;;;1.98;;
18125;SDS011;53956;52.442;13.284;2023-07-24T08:04:01;2.10;;;1.80;;
18125;SDS011;53956;52.442;13.284;2023-07-24T08:06:28;2.00;;;1.85;;
18125;SDS011;53956;52.442;13.284;2023-07-24T08:08:55;1.90;;;1.70;;
18125;SDS011;53956;52.442;13.284;2023-07-24T08:11:21;2.55;;;1.98;;
18125;SDS011;53956;52.442;13.284;2023-07-24T08:13:48;3.53;;;1.70;;
18125;SDS011;53956;52.442;13.284;2023-07-24T08:16:15;2.20;;;1.77;;
18125;SDS011;53956;52.442;13.284;2023-07-24T08:18:45;2.40;;;1.98;;
18125;SDS011;53956;52.442;13.284;2023-07-24T08:21:12;2.65;;;1.90;;
18125;SDS011;53956;52.442;13.284;2023-07-24T08:23:39;2.28;;;1.63;;
18125;SDS011;53956;52.442;13.284;2023-07-24T08:26:06;4.03;;;1.80;;
18125;SDS011;53956;52.442;13.284;2023-07-24T08:28:33;3.53;;;2.03;;
18125;SDS011;53956;52.442;13.284;2023-07-24T08:31:00;3.53;;;1.90;;
18125;SDS011;53956;52.442;13.284;2023-07-24T08:33:27;2.75;;;1.85;;
18125;SDS011;53956;52.442;13.284;2023-07-24T08:35:59;5.55;;;2.20;;
18125;SDS011;53956;52.442;13.284;2023-07-24T08:38:27;2.60;;;1.70;;
18125;SDS011;53956;52.442;13.284;2023-07-24T08:40:59;2.80;;;1.95;;
18125;SDS011;53956;52.442;13.284;2023-07-24T08:43:30;2.80;;;1.80;;
18125;SDS011;53956;52.442;13.284;2023-07-24T08:45:58;2.65;;;1.80;;
18125;SDS011;53956;52.442;13.284;2023-07-24T08:48:26;2.15;;;1.75;;
18125;SDS011;53956;52.442;13.284;2023-07-24T08:50:55;3.55;;;1.80;;
18125;SDS011;53956;52.442;13.284;2023-07-24T08:53:24;3.30;;;1.73;;
18125;SDS011;53956;52.442;13.284;2023-07-24T08:55:51;3.72;;;1.90;;
18125;SDS011;53956;52.442;13.284;2023-07-24T08:58:19;2.72;;;1.92;;
18125;SDS011;53956;52.442;13.284;2023-07-24T09:00:46;2.33;;;1.80;;
18125;SDS011;53956;52.442;13.284;2023-07-24T09:03:13;2.90;;;1.80;;
18125;SDS011;53956;52.442;13.284;2023-07-24T09:05:39;3.25;;;2.10;;
18125;SDS011;53956;52.442;13.284;2023-07-24T09:08:06;4.20;;;2.10;;
18125;SDS011;53956;52.442;13.284;2023-07-24T09:10:34;3.33;;;1.73;;
18125;SDS011;53956;52.442;13.284;2023-07-24T09:13:01;4.38;;;2.00;;
18125;SDS011;53956;52.442;13.284;2023-07-24T09:15:29;2.50;;;1.70;;
18125;SDS011;53956;52.442;13.284;2023-07-24T09:17:55;2.00;;;1.60;;
18125;SDS011;53956;52.442;13.284;2023-07-24T09:20:22;3.03;;;1.98;;
18125;SDS011;53956;52.442;13.284;2023-07-24T09:22:49;3.92;;;2.05;;
18125;SDS011;53956;52.442;13.284;2023-07-24T09:25:17;2.83;;;2.20;;
18125;SDS011;53956;52.442;13.284;2023-07-24T09:27:45;3.67;;;2.00;;
18125;SDS011;53956;52.442;13.284;2023-07-24T09:30:12;3.00;;;2.03;;
18125;SDS011;53956;52.442;13.284;2023-07-24T09:32:39;3.63;;;2.13;;
18125;SDS011;53956;52.442;13.284;2023-07-24T09:35:15;2.22;;;1.90;;
18125;SDS011;53956;52.442;13.284;2023-07-24T09:37:43;2.42;;;1.90;;
18125;SDS011;53956;52.442;13.284;2023-07-24T09:40:10;4.68;;;1.92;;
18125;SDS011;53956;52.442;13.284;2023-07-24T09:42:38;4.53;;;2.10;;
18125;SDS011;53956;52.442;13.284;2023-07-24T09:45:08;3.00;;;2.28;;
18125;SDS011;53956;52.442;13.284;2023-07-24T09:47:35;3.40;;;2.25;;
18125;SDS011;53956;52.442;13.284;2023-07-24T09:50:02;3.95;;;2.33;;
18125;SDS011;53956;52.442;13.284;2023-07-24T09:52:30;3.38;;;2.30;;
18125;SDS011;53956;52.442;13.284;2023-07-24T09:54:59;3.97;;;2.38;;
18125;SDS011;53956;52.442;13.284;2023-07-24T09:57:30;3.75;;;2.20;;
18125;SDS011;53956;52.442;13.284;2023-07-24T09:59:58;4.82;;;2.47;;
18125;SDS011;53956;52.442;13.284;2023-07-24T10:02:26;3.60;;;2.28;;
18125;SDS011;53956;52.442;13.284;2023-07-24T10:04:54;3.88;;;2.13;;
18125;SDS011;53956;52.442;13.284;2023-07-24T10:07:22;3.40;;;2.53;;
18125;SDS011;53956;52.442;13.284;2023-07-24T10:09:49;4.32;;;2.30;;
18125;SDS011;53956;52.442;13.284;2023-07-24T10:12:16;4.15;;;2.55;;
18125;SDS011;53956;52.442;13.284;2023-07-24T10:14:44;3.90;;;2.70;;
18125;SDS011;53956;52.442;13.284;2023-07-24T10:17:12;4.90;;;2.78;;
18125;SDS011;53956;52.442;13.284;2023-07-24T10:19:40;5.10;;;2.80;;
18125;SDS011;53956;52.442;13.284;2023-07-24T10:22:08;6.57;;;3.10;;
18125;SDS011;53956;52.442;13.284;2023-07-24T10:24:35;4.82;;;3.25;;
18125;SDS011;53956;52.442;13.284;2023-07-24T10:27:02;4.05;;;3.00;;
18125;SDS011;53956;52.442;13.284;2023-07-24T10:29:33;3.45;;;2.70;;
18125;SDS011;53956;52.442;13.284;2023-07-24T10:32:00;3.92;;;2.85;;
18125;SDS011;53956;52.442;13.284;2023-07-24T10:34:35;6.10;;;2.78;;
18125;SDS011;53956;52.442;13.284;2023-07-24T10:37:06;5.28;;;3.13;;
18125;SDS011;53956;52.442;13.284;2023-07-24T10:39:37;4.82;;;3.05;;
18125;SDS011;53956;52.442;13.284;2023-07-24T10:42:05;4.35;;;3.10;;
18125;SDS011;53956;52.442;13.284;2023-07-24T10:44:32;7.47;;;3.67;;
18125;SDS011;53956;52.442;13.284;2023-07-24T10:46:59;5.22;;;3.38;;
18125;SDS011;53956;52.442;13.284;2023-07-24T10:49:26;6.43;;;3.65;;
18125;SDS011;53956;52.442;13.284;2023-07-24T10:51:54;6.43;;;3.80;;
18125;SDS011;53956;52.442;13.284;2023-07-24T10:54:23;5.18;;;3.78;;
18125;SDS011;53956;52.442;13.284;2023-07-24T10:56:50;6.25;;;3.83;;
18125;SDS011;53956;52.442;13.284;2023-07-24T10:59:23;6.57;;;3.55;;
18125;SDS011;53956;52.442;13.284;2023-07-24T11:01:49;5.57;;;3.83;;
18125;SDS011;53956;52.442;13.284;2023-07-24T11:04:16;7.22;;;4.38;;
18125;SDS011;53956;52.442;13.284;2023-07-24T11:06:43;5.32;;;3.90;;
18125;SDS011;53956;52.442;13.284;2023-07-24T11:09:10;6.25;;;4.03;;
18125;SDS011;53956;52.442;13.284;2023-07-24T11:11:38;5.38;;;3.97;;
18125;SDS011;53956;52.442;13.284;2023-07-24T11:14:04;8.25;;;4.10;;
18125;SDS011;53956;52.442;13.284;2023-07-24T11:16:31;7.47;;;3.70;;
18125;SDS011;53956;52.442;13.284;2023-07-24T11:18:58;5.80;;;3.83;;
18125;SDS011;53956;52.442;13.284;2023-07-24T11:21:24;7.22;;;3.67;;
18125;SDS011;53956;52.442;13.284;2023-07-24T11:23:52;5.72;;;3.80;;
18125;SDS011;53956;52.442;13.284;2023-07-24T11:26:19;6.55;;;3.60;;
18125;SDS011;53956;52.442;13.284;2023-07-24T11:28:48;5.05;;;3.78;;
18125;SDS011;53956;52.442;13.284;2023-07-24T11:31:15;8.20;;;4.38;;
18125;SDS011;53956;52.442;13.284;2023-07-24T11:33:44;7.25;;;3.90;;
18125;SDS011;53956;52.442;13.284;2023-07-24T11:36:11;8.80;;;4.43;;
18125;SDS011;53956;52.442;13.284;2023-07-24T11:38:39;8.07;;;4.28;;
18125;SDS011;53956;52.442;13.284;2023-07-24T11:41:05;8.25;;;4.80;;
18125;SDS011;53956;52.442;13.284;2023-07-24T11:43:34;7.60;;;4.45;;
18125;SDS011;53956;52.442;13.284;2023-07-24T11:46:02;8.27;;;4.00;;
18125;SDS011;53956;52.442;13.284;2023-07-24T11:48:29;6.63;;;4.35;;
18125;SDS011;53956;52.442;13.284;2023-07-24T11:50:56;7.60;;;4.50;;
18125;SDS011;53956;52.442;13.284;2023-07-24T11:53:23;6.45;;;4.18;;
18125;SDS011;53956;52.442;13.284;2023-07-24T11:55:52;5.85;;;4.00;;
18125;SDS011;53956;52.442;13.284;2023-07-24T11:58:20;6.35;;;4.28;;
18125;SDS011;53956;52.442;13.284;2023-07-24T12:00:47;9.20;;;4.00;;
18125;SDS011;53956;52.442;13.284;2023-07-24T12:03:18;7.15;;;4.20;;
18125;SDS011;53956;52.442;13.284;2023-07-24T12:05:45;8.73;;;4.30;;
18125;SDS011;53956;52.442;13.284;2023-07-24T12:08:12;7.32;;;4.43;;
18125;SDS011;53956;52.442;13.284;2023-07-24T12:10:40;5.40;;;4.20;;
18125;SDS011;53956;52.442;13.284;2023-07-24T12:13:07;8.25;;;4.70;;
18125;SDS011;53956;52.442;13.284;2023-07-24T12:15:33;6.03;;;4.05;;
18125;SDS011;53956;52.442;13.284;2023-07-24T12:18:00;8.32;;;4.68;;
18125;SDS011;53956;52.442;13.284;2023-07-24T12:20:28;6.25;;;3.95;;
18125;SDS011;53956;52.442;13.284;2023-07-24T12:22:56;9.88;;;4.10;;
18125;SDS011;53956;52.442;13.284;2023-07-24T12:25:23;5.50;;;4.00;;
18125;SDS011;53956;52.442;13.284;2023-07-24T12:27:50;7.97;;;3.75;;
18125;SDS011;53956;52.442;13.284;2023-07-24T12:30:16;8.82;;;3.80;;
18125;SDS011;53956;52.442;13.284;2023-07-24T12:32:43;9.45;;;3.85;;
18125;SDS011;53956;52.442;13.284;2023-07-24T12:35:10;7.75;;;3.80;;
18125;SDS011;53956;52.442;13.284;2023-07-24T12:37:38;7.50;;;4.28;;
18125;SDS011;53956;52.442;13.284;2023-07-24T12:40:06;7.80;;;3.88;;
18125;SDS011;53956;52.442;13.284;2023-07-24T12:42:33;7.88;;;3.83;;
18125;SDS011;53956;52.442;13.284;2023-07-24T12:45:00;8.70;;;3.80;;
18125;SDS011;53956;52.442;13.284;2023-07-24T12:47:28;6.82;;;3.65;;
18125;SDS011;53956;52.442;13.284;2023-07-24T12:49:54;7.55;;;3.83;;
18125;SDS011;53956;52.442;13.284;2023-07-24T12:52:22;7.63;;;3.40;;
18125;SDS011;53956;52.442;13.284;2023-07-24T12:54:50;7.47;;;4.00;;
18125;SDS011;53956;52.442;13.284;2023-07-24T12:57:17;7.20;;;4.03;;
18125;SDS011;53956;52.442;13.284;2023-07-24T12:59:44;6.00;;;3.88;;
18125;SDS011;53956;52.442;13.284;2023-07-24T13:02:10;4.55;;;3.55;;
18125;SDS011;53956;52.442;13.284;2023-07-24T13:04:37;8.15;;;3.67;;
18125;SDS011;53956;52.442;13.284;2023-07-24T13:07:04;5.93;;;3.22;;
18125;SDS011;53956;52.442;13.284;2023-07-24T13:09:31;4.60;;;3.13;;
18125;SDS011;53956;52.442;13.284;2023-07-24T13:11:58;7.63;;;3.40;;
18125;SDS011;53956;52.442;13.284;2023-07-24T13:14:25;5.00;;;3.30;;
18125;SDS011;53956;52.442;13.284;2023-07-24T13:16:52;6.95;;;3.40;;
18125;SDS011;53956;52.442;13.284;2023-07-24T13:19:18;4.53;;;3.20;;
18125;SDS011;53956;52.442;13.284;2023-07-24T13:21:45;6.47;;;3.40;;
18125;SDS011;53956;52.442;13.284;2023-07-24T13:24:12;5.03;;;3.38;;
18125;SDS011;53956;52.442;13.284;2023-07-24T13:26:39;6.15;;;3.20;;
18125;SDS011;53956;52.442;13.284;2023-07-24T13:29:07;4.82;;;3.00;;
18125;SDS011;53956;52.442;13.284;2023-07-24T13:31:33;6.43;;;3.20;;
18125;SDS011;53956;52.442;13.284;2023-07-24T13:34:00;5.47;;;3.33;;
18125;SDS011;53956;52.442;13.284;2023-07-24T13:36:30;6.32;;;3.42;;
18125;SDS011;53956;52.442;13.284;2023-07-24T13:38:56;5.57;;;3.55;;
18125;SDS011;53956;52.442;13.284;2023-07-24T13:41:23;4.75;;;3.33;;
18125;SDS011;53956;52.442;13.284;2023-07-24T13:43:50;5.30;;;3.17;;
18125;SDS011;53956;52.442;13.284;2023-07-24T13:46:18;10.93;;;3.47;;
18125;SDS011;53956;52.442;13.284;2023-07-24T13:48:44;9.05;;;3.20;;
18125;SDS011;53956;52.442;13.284;2023-07-24T13:51:11;12.45;;;3.22;;
18125;SDS011;53956;52.442;13.284;2023-07-24T13:53:37;7.78;;;3.15;;
18125;SDS011;53956;52.442;13.284;2023-07-24T13:56:04;8.98;;;2.95;;
18125;SDS011;53956;52.442;13.284;2023-07-24T13:58:31;5.88;;;3.25;;
18125;SDS011;53956;52.442;13.284;2023-07-24T14:00:58;6.28;;;2.92;;
18125;SDS011;53956;52.442;13.284;2023-07-24T14:03:26;7.03;;;3.15;;
18125;SDS011;53956;52.442;13.284;2023-07-24T14:05:54;4.65;;;3.30;;
18125;SDS011;53956;52.442;13.284;2023-07-24T14:08:21;6.18;;;3.30;;
18125;SDS011;53956;52.442;13.284;2023-07-24T14:10:48;5.65;;;3.05;;
18125;SDS011;53956;52.442;13.284;2023-07-24T14:13:14;3.92;;;2.80;;
18125;SDS011;53956;52.442;13.284;2023-07-24T14:15:41;5.72;;;2.97;;
18125;SDS011;53956;52.442;13.284;2023-07-24T14:18:08;4.53;;;3.20;;
18125;SDS011;53956;52.442;13.284;2023-07-24T14:20:35;4.07;;;2.88;;
18125;SDS011;53956;52.442;13.284;2023-07-24T14:23:05;6.85;;;3.05;;
18125;SDS011;53956;52.442;13.284;2023-07-24T14:25:32;6.38;;;2.80;;
18125;SDS011;53956;52.442;13.284;2023-07-24T14:27:59;4.55;;;2.97;;
18125;SDS011;53956;52.442;13.284;2023-07-24T14:30:25;4.35;;;2.70;;
18125;SDS011;53956;52.442;13.284;2023-07-24T14:32:52;4.65;;;2.92;;